createdAt,value
2023-01-13T00:00:44.755Z,2.80
2023-01-13T00:03:13.967Z,2.80
2023-01-13T00:05:42.952Z,2.80
2023-01-13T00:08:12.131Z,2.80
2023-01-13T00:10:41.313Z,2.80
2023-01-13T00:13:12.183Z,2.80
2023-01-13T00:15:41.483Z,2.90
2023-01-13T00:18:10.809Z,2.80
2023-01-13T00:20:40.109Z,2.80
2023-01-13T00:23:09.558Z,2.80
2023-01-13T00:25:38.611Z,2.80
2023-01-13T00:28:09.872Z,2.90
2023-01-13T00:30:41.213Z,2.90
2023-01-13T00:33:10.472Z,2.70
2023-01-13T00:35:39.700Z,2.80
2023-01-13T00:38:08.986Z,2.80
2023-01-13T00:40:38.326Z,2.90
2023-01-13T00:43:24.155Z,2.90
2023-01-13T00:45:55.001Z,2.90
2023-01-13T00:48:25.577Z,2.80
2023-01-13T00:50:59.178Z,2.80
2023-01-13T00:53:29.490Z,2.80
2023-01-13T00:56:02.378Z,2.80
2023-01-13T00:58:34.829Z,2.90
2023-01-13T01:01:07.562Z,2.80
2023-01-13T01:03:38.011Z,2.80
2023-01-13T01:06:09.774Z,2.90
2023-01-13T01:08:38.803Z,2.80
2023-01-13T01:11:10.700Z,2.70
2023-01-13T01:13:40.575Z,2.60
2023-01-13T01:16:14.659Z,2.60
2023-01-13T01:18:45.940Z,2.50
2023-01-13T01:21:15.653Z,2.60
2023-01-13T01:23:45.214Z,2.70
2023-01-13T01:26:16.855Z,2.70
2023-01-13T01:28:46.450Z,2.60
2023-01-13T01:31:20.234Z,2.70
2023-01-13T01:33:49.940Z,2.80
2023-01-13T01:36:21.696Z,2.80
2023-01-13T01:38:51.818Z,2.80
2023-01-13T01:41:23.314Z,2.80
2023-01-13T01:44:00.304Z,2.70
2023-01-13T01:46:33.863Z,2.80
2023-01-13T01:49:10.317Z,2.80
2023-01-13T01:51:43.717Z,2.80
2023-01-13T01:54:17.101Z,2.80
2023-01-13T01:56:47.871Z,2.80
2023-01-13T01:59:17.808Z,2.80
2023-01-13T02:01:48.624Z,2.80
2023-01-13T02:04:22.099Z,2.80
2023-01-13T02:06:52.950Z,2.80
2023-01-13T02:09:22.444Z,2.80
2023-01-13T02:12:08.942Z,2.80
2023-01-13T02:14:39.414Z,2.80
2023-01-13T02:17:28.844Z,2.80
2023-01-13T02:20:23.870Z,2.80
2023-01-13T02:23:56.767Z,2.90
2023-01-13T02:27:05.943Z,2.80
2023-01-13T02:30:18.912Z,2.70
2023-01-13T02:32:59.108Z,2.80
2023-01-13T02:35:34.738Z,2.80
2023-01-13T02:38:05.629Z,2.70
2023-01-13T02:40:41.673Z,2.70
2023-01-13T02:43:34.535Z,2.80
2023-01-13T02:46:09.981Z,2.80
2023-01-13T02:48:43.660Z,2.80
2023-01-13T02:51:17.457Z,2.80
2023-01-13T02:53:49.650Z,2.80
2023-01-13T02:56:19.649Z,2.80
2023-01-13T02:58:50.253Z,2.80
2023-01-13T03:01:21.681Z,2.70
2023-01-13T03:03:51.494Z,2.80
2023-01-13T03:06:38.607Z,2.60
2023-01-13T03:09:13.488Z,2.70
2023-01-13T03:11:52.560Z,2.80
2023-01-13T03:14:31.791Z,2.80
2023-01-13T03:17:23.991Z,2.80
2023-01-13T03:20:03.129Z,2.80
2023-01-13T03:22:36.381Z,2.70
2023-01-13T03:25:13.115Z,2.80
2023-01-13T03:27:49.815Z,2.80
2023-01-13T03:30:22.751Z,2.80
2023-01-13T03:32:58.901Z,2.90
2023-01-13T03:35:32.190Z,2.90
2023-01-13T03:38:07.553Z,3.00
2023-01-13T03:40:42.115Z,3.00
2023-01-13T03:43:32.705Z,3.00
2023-01-13T03:46:06.486Z,3.00
2023-01-13T03:48:40.723Z,3.00
2023-01-13T03:51:14.254Z,3.00
2023-01-13T03:53:49.689Z,3.00
2023-01-13T03:56:25.776Z,3.00
2023-01-13T03:58:56.206Z,3.00
2023-01-13T04:01:26.922Z,2.90
2023-01-13T04:04:01.906Z,2.90
2023-01-13T04:06:38.291Z,2.90
2023-01-13T04:09:16.194Z,2.90
2023-01-13T04:11:50.675Z,2.90
2023-01-13T04:14:22.496Z,2.90
2023-01-13T04:16:51.751Z,2.80
2023-01-13T04:19:23.121Z,2.80
2023-01-13T04:21:52.514Z,2.90
2023-01-13T04:24:21.694Z,2.80
2023-01-13T04:26:51.026Z,2.90
2023-01-13T04:29:20.328Z,2.90
2023-01-13T04:31:49.471Z,2.90
2023-01-13T04:34:18.818Z,3.00
2023-01-13T04:36:49.316Z,3.00
2023-01-13T04:39:19.006Z,3.00
2023-01-13T04:42:00.131Z,2.90
2023-01-13T04:44:30.668Z,2.90
2023-01-13T04:47:00.380Z,2.90
2023-01-13T04:49:29.578Z,2.90
2023-01-13T04:52:00.716Z,2.90
2023-01-13T04:54:30.105Z,2.90
2023-01-13T04:56:59.811Z,2.90
2023-01-13T04:59:29.207Z,3.00
2023-01-13T05:01:58.165Z,2.90
2023-01-13T05:04:27.237Z,2.90
2023-01-13T05:06:56.308Z,2.90
2023-01-13T05:09:27.442Z,2.90
2023-01-13T05:12:28.552Z,2.90
2023-01-13T05:15:15.467Z,2.90
2023-01-13T05:17:45.043Z,2.90
2023-01-13T05:20:15.188Z,2.90
2023-01-13T05:23:01.380Z,2.70
2023-01-13T05:25:32.110Z,2.70
2023-01-13T05:28:01.522Z,2.70
2023-01-13T05:30:32.227Z,2.80
2023-01-13T05:33:01.963Z,2.80
2023-01-13T05:35:31.356Z,2.80
2023-01-13T05:38:00.369Z,2.80
2023-01-13T05:40:47.160Z,2.70
2023-01-13T05:43:22.207Z,2.80
2023-01-13T05:45:53.984Z,2.80
2023-01-13T05:48:25.609Z,2.90
2023-01-13T05:50:55.253Z,2.90
2023-01-13T05:53:25.474Z,2.90
2023-01-13T05:55:55.250Z,2.90
2023-01-13T05:58:28.655Z,2.80
2023-01-13T06:01:01.563Z,2.90
2023-01-13T06:03:31.040Z,2.90
2023-01-13T06:06:02.435Z,2.90
2023-01-13T06:08:32.038Z,3.00
2023-01-13T06:11:01.524Z,3.00
2023-01-13T06:13:32.780Z,3.00
2023-01-13T06:16:02.121Z,2.70
2023-01-13T06:18:31.834Z,2.80
2023-01-13T06:21:01.140Z,2.90
2023-01-13T06:23:35.252Z,3.00
2023-01-13T06:26:09.899Z,3.00
2023-01-13T06:28:40.783Z,2.90
2023-01-13T06:31:11.915Z,3.00
2023-01-13T06:33:45.858Z,2.90
2023-01-13T06:36:18.214Z,2.90
2023-01-13T06:38:51.378Z,2.70
2023-01-13T06:41:41.602Z,2.80
2023-01-13T06:44:11.632Z,2.80
2023-01-13T06:46:41.041Z,2.80
2023-01-13T06:49:10.531Z,2.90
2023-01-13T06:51:39.865Z,3.00
2023-01-13T06:54:09.116Z,2.90
2023-01-13T06:56:38.308Z,3.00
2023-01-13T06:59:07.954Z,3.00
2023-01-13T07:01:38.980Z,3.10
2023-01-13T07:04:08.282Z,3.20
2023-01-13T07:06:37.662Z,3.20
2023-01-13T07:09:07.042Z,3.20
2023-01-13T07:11:36.100Z,3.20
2023-01-13T07:14:22.883Z,3.10
2023-01-13T07:16:53.880Z,3.10
2023-01-13T07:19:24.281Z,3.20
2023-01-13T07:21:53.810Z,3.10
2023-01-13T07:24:23.482Z,3.10
2023-01-13T07:26:53.801Z,3.20
2023-01-13T07:29:23.055Z,3.30
2023-01-13T07:31:53.965Z,3.30
2023-01-13T07:34:23.178Z,3.40
2023-01-13T07:36:52.347Z,3.60
2023-01-13T07:39:21.424Z,3.60
2023-01-13T07:42:07.034Z,3.40
2023-01-13T07:44:36.591Z,3.40
2023-01-13T07:47:08.851Z,3.40
2023-01-13T07:49:38.189Z,3.50
2023-01-13T07:52:07.817Z,3.50
2023-01-13T07:54:41.106Z,3.50
2023-01-13T07:57:10.342Z,3.50
2023-01-13T07:59:39.509Z,3.70
2023-01-13T08:02:13.431Z,3.70
2023-01-13T08:04:43.107Z,3.70
2023-01-13T08:07:12.258Z,3.80
2023-01-13T08:09:41.688Z,3.80
2023-01-13T08:12:33.526Z,3.90
2023-01-13T08:15:02.797Z,3.90
2023-01-13T08:17:33.725Z,4.00
2023-01-13T08:20:03.147Z,4.10
2023-01-13T08:22:33.848Z,4.20
2023-01-13T08:25:03.144Z,4.30
2023-01-13T08:27:32.390Z,4.30
2023-01-13T08:30:01.512Z,4.40
2023-01-13T08:32:30.789Z,4.40
2023-01-13T08:35:01.637Z,4.20
2023-01-13T08:37:31.009Z,4.20
2023-01-13T08:39:59.929Z,4.30
2023-01-13T08:42:29.299Z,4.30
2023-01-13T08:44:58.951Z,4.40
2023-01-13T08:47:29.999Z,4.40
2023-01-13T08:50:01.097Z,4.60
2023-01-13T08:52:31.325Z,4.80
2023-01-13T08:55:00.961Z,4.80
2023-01-13T08:57:30.027Z,4.80
2023-01-13T08:59:59.591Z,4.80
2023-01-13T09:02:29.161Z,4.90
2023-01-13T09:04:58.382Z,5.10
2023-01-13T09:07:29.050Z,5.10
2023-01-13T09:09:58.181Z,5.20
2023-01-13T09:12:44.798Z,5.40
2023-01-13T09:15:14.632Z,5.50
2023-01-13T09:17:44.087Z,5.60
2023-01-13T09:20:14.744Z,5.60
2023-01-13T09:22:45.723Z,5.50
2023-01-13T09:25:14.788Z,5.70
2023-01-13T09:27:43.994Z,5.80
2023-01-13T09:30:14.151Z,5.90
2023-01-13T09:32:43.291Z,6.00
2023-01-13T09:35:11.204Z,6.10
2023-01-13T09:37:42.392Z,6.30
2023-01-13T09:40:19.756Z,6.40
2023-01-13T09:43:11.660Z,6.40
2023-01-13T09:45:45.856Z,6.40
2023-01-13T09:48:21.698Z,6.60
2023-01-13T09:51:02.316Z,6.70
2023-01-13T09:53:36.220Z,6.80
2023-01-13T09:56:08.118Z,6.90
2023-01-13T09:58:37.370Z,6.90
2023-01-13T10:01:17.749Z,6.80
2023-01-13T10:03:49.567Z,7.00
2023-01-13T10:06:21.575Z,7.00
2023-01-13T10:08:52.980Z,7.00
2023-01-13T10:11:43.256Z,7.00
2023-01-13T10:14:17.285Z,6.30
2023-01-13T10:16:52.484Z,6.30
2023-01-13T10:19:28.226Z,6.40
2023-01-13T10:22:22.991Z,6.30
2023-01-13T10:25:29.453Z,6.40
2023-01-13T10:28:09.916Z,6.20
2023-01-13T10:30:41.488Z,6.30
2023-01-13T10:33:16.115Z,6.30
2023-01-13T10:35:54.426Z,5.90
2023-01-13T10:38:26.127Z,5.70
2023-01-13T10:40:57.268Z,5.40
2023-01-13T10:43:29.152Z,5.40
2023-01-13T10:46:01.192Z,5.60
2023-01-13T10:48:42.943Z,5.40
2023-01-13T10:51:24.607Z,5.40
2023-01-13T10:53:57.036Z,5.50
2023-01-13T10:56:28.706Z,5.80
2023-01-13T10:59:19.184Z,5.60
2023-01-13T11:01:57.126Z,5.50
2023-01-13T11:04:32.419Z,5.70
2023-01-13T11:07:02.727Z,5.80
2023-01-13T11:09:33.180Z,5.80
2023-01-13T11:12:03.405Z,5.90
2023-01-13T11:14:43.501Z,5.90
2023-01-13T11:17:32.547Z,6.10
2023-01-13T11:20:13.705Z,6.30
2023-01-13T11:22:47.298Z,6.20
2023-01-13T11:25:21.423Z,6.30
2023-01-13T11:27:59.287Z,6.30
2023-01-13T11:30:38.277Z,6.40
2023-01-13T11:33:26.729Z,6.60
2023-01-13T11:36:04.817Z,6.60
2023-01-13T11:38:42.020Z,6.50
2023-01-13T11:41:22.176Z,6.50
2023-01-13T11:43:56.113Z,6.50
2023-01-13T11:46:29.100Z,6.40
2023-01-13T11:48:58.714Z,6.30
2023-01-13T11:51:36.144Z,6.10
2023-01-13T11:54:27.818Z,6.10
2023-01-13T11:57:19.543Z,6.20
2023-01-13T12:00:19.127Z,6.20
2023-01-13T12:02:59.872Z,6.10
2023-01-13T12:05:39.623Z,5.80
2023-01-13T12:08:19.834Z,5.80
2023-01-13T12:11:00.806Z,5.60
2023-01-13T12:13:41.896Z,5.70
2023-01-13T12:16:24.715Z,5.50
2023-01-13T12:19:24.642Z,5.10
2023-01-13T12:22:04.162Z,5.40
2023-01-13T12:24:40.128Z,5.30
2023-01-13T12:27:17.571Z,5.50
2023-01-13T12:29:48.791Z,5.40
2023-01-13T12:32:22.175Z,5.40
2023-01-13T12:35:03.846Z,5.50
2023-01-13T12:37:43.565Z,5.60
2023-01-13T12:40:30.111Z,5.50
2023-01-13T12:43:32.409Z,5.60
2023-01-13T12:46:41.082Z,5.60
2023-01-13T12:49:24.813Z,5.40
2023-01-13T12:52:16.536Z,5.50
2023-01-13T12:55:21.601Z,5.40
2023-01-13T12:58:16.994Z,5.30
2023-01-13T13:01:12.293Z,5.40
2023-01-13T13:03:41.906Z,5.50
2023-01-13T13:06:24.367Z,5.50
2023-01-13T13:09:04.177Z,5.30
2023-01-13T13:12:05.340Z,5.50
2023-01-13T13:15:04.058Z,5.30
2023-01-13T13:18:03.084Z,5.30
2023-01-13T13:20:55.499Z,5.30
2023-01-13T13:23:59.307Z,5.50
2023-01-13T13:26:42.736Z,5.40
2023-01-13T13:29:33.237Z,5.30
2023-01-13T13:32:29.719Z,5.30
2023-01-13T13:35:24.075Z,5.30
2023-01-13T13:38:20.184Z,5.40
2023-01-13T13:41:07.193Z,5.20
2023-01-13T13:44:01.341Z,5.20
2023-01-13T13:46:52.155Z,4.90
2023-01-13T13:49:23.409Z,5.10
2023-01-13T13:52:00.272Z,5.10
2023-01-13T13:54:30.412Z,5.10
2023-01-13T13:57:02.115Z,5.10
2023-01-13T13:59:35.907Z,5.20
2023-01-13T14:02:18.676Z,5.30
2023-01-13T14:04:48.690Z,5.20
2023-01-13T14:07:21.808Z,5.20
2023-01-13T14:09:54.967Z,5.20
2023-01-13T14:12:27.069Z,5.10
2023-01-13T14:15:00.272Z,5.10
2023-01-13T14:17:33.408Z,5.20
2023-01-13T14:20:08.471Z,5.20
2023-01-13T14:22:38.384Z,5.20
2023-01-13T14:25:30.625Z,5.30
2023-01-13T14:28:05.283Z,5.30
2023-01-13T14:30:39.385Z,5.20
2023-01-13T14:33:14.477Z,5.10
2023-01-13T14:36:15.359Z,5.00
2023-01-13T14:38:47.469Z,5.10
2023-01-13T14:41:23.811Z,5.00
2023-01-13T14:43:57.574Z,5.10
2023-01-13T14:46:39.122Z,5.10
2023-01-13T14:49:24.696Z,4.90
2023-01-13T14:51:55.664Z,4.80
2023-01-13T14:54:45.269Z,4.80
2023-01-13T14:57:17.059Z,4.60
2023-01-13T14:59:56.098Z,4.70
2023-01-13T15:02:43.400Z,4.60
2023-01-13T15:05:37.487Z,4.70
2023-01-13T15:08:22.038Z,4.60
2023-01-13T15:10:54.722Z,4.60
2023-01-13T15:13:35.845Z,4.60
2023-01-13T15:16:08.835Z,4.50
2023-01-13T15:18:41.615Z,4.40
2023-01-13T15:21:11.165Z,4.30
2023-01-13T15:23:41.824Z,4.30
2023-01-13T15:26:22.709Z,4.30
2023-01-13T15:28:53.650Z,4.30
2023-01-13T15:31:24.802Z,4.20
2023-01-13T15:33:56.825Z,4.20
2023-01-13T15:36:29.725Z,4.10
2023-01-13T15:39:00.314Z,4.20
2023-01-13T15:41:47.235Z,4.20
2023-01-13T15:44:35.338Z,4.20
2023-01-13T15:47:09.686Z,4.20
2023-01-13T15:49:43.307Z,4.10
2023-01-13T15:52:21.574Z,4.10
2023-01-13T15:54:51.303Z,4.10
2023-01-13T15:57:25.040Z,4.20
2023-01-13T15:59:58.149Z,4.10
2023-01-13T16:02:30.016Z,4.10
2023-01-13T16:05:01.416Z,4.00
2023-01-13T16:07:32.298Z,4.00
2023-01-13T16:10:03.808Z,4.00
2023-01-13T16:12:34.049Z,3.90
2023-01-13T16:15:04.526Z,3.90
2023-01-13T16:17:35.119Z,4.00
2023-01-13T16:20:07.107Z,3.90
2023-01-13T16:22:36.991Z,3.90
2023-01-13T16:25:07.645Z,3.90
2023-01-13T16:27:39.230Z,3.90
2023-01-13T16:30:13.787Z,3.90
2023-01-13T16:32:43.115Z,3.90
2023-01-13T16:35:14.588Z,4.00
2023-01-13T16:37:48.065Z,4.10
2023-01-13T16:40:26.747Z,4.00
2023-01-13T16:42:57.327Z,4.00
2023-01-13T16:45:27.498Z,4.00
2023-01-13T16:47:57.565Z,4.00
2023-01-13T16:50:37.179Z,3.90
2023-01-13T16:53:09.623Z,3.90
2023-01-13T16:55:40.412Z,3.90
2023-01-13T16:58:18.043Z,3.90
2023-01-13T17:00:48.727Z,3.90
2023-01-13T17:03:18.718Z,3.80
2023-01-13T17:05:49.820Z,3.90
2023-01-13T17:08:20.037Z,3.80
2023-01-13T17:10:50.120Z,3.70
2023-01-13T17:13:20.044Z,3.80
2023-01-13T17:15:49.399Z,3.90
2023-01-13T17:18:18.908Z,3.80
2023-01-13T17:20:50.348Z,3.80
2023-01-13T17:23:19.570Z,3.80
2023-01-13T17:25:49.154Z,4.00
2023-01-13T17:28:18.801Z,3.90
2023-01-13T17:30:48.599Z,3.80
2023-01-13T17:33:18.417Z,3.80
2023-01-13T17:35:49.792Z,3.70
2023-01-13T17:38:19.755Z,3.80
2023-01-13T17:40:49.209Z,3.80
2023-01-13T17:43:19.198Z,3.80
2023-01-13T17:45:49.216Z,3.80
2023-01-13T17:48:18.629Z,3.70
2023-01-13T17:50:52.721Z,3.50
2023-01-13T17:53:22.643Z,3.30
2023-01-13T17:55:53.314Z,3.40
2023-01-13T17:58:24.088Z,3.50
2023-01-13T18:00:55.897Z,3.40
2023-01-13T18:03:25.257Z,3.60
2023-01-13T18:05:56.148Z,3.60
2023-01-13T18:08:25.824Z,3.80
2023-01-13T18:10:58.200Z,3.50
2023-01-13T18:13:28.740Z,3.60
2023-01-13T18:16:08.053Z,3.70
2023-01-13T18:18:37.976Z,3.70
2023-01-13T18:21:27.272Z,3.70
2023-01-13T18:24:10.369Z,3.60
2023-01-13T18:26:58.425Z,3.70
2023-01-13T18:29:29.072Z,3.70
2023-01-13T18:31:58.685Z,3.70
2023-01-13T18:34:28.151Z,3.70
2023-01-13T18:37:00.394Z,3.50
2023-01-13T18:39:30.516Z,3.60
2023-01-13T18:42:20.163Z,3.40
2023-01-13T18:44:49.944Z,3.50
2023-01-13T18:47:19.967Z,3.50
2023-01-13T18:49:50.192Z,3.60
2023-01-13T18:52:24.182Z,3.60
2023-01-13T18:54:53.962Z,3.50
2023-01-13T18:57:23.272Z,3.50
2023-01-13T18:59:53.348Z,3.50
2023-01-13T19:02:24.035Z,3.50
2023-01-13T19:04:54.615Z,3.60
2023-01-13T19:07:28.941Z,3.60
2023-01-13T19:10:00.041Z,3.50
2023-01-13T19:12:31.550Z,3.60
2023-01-13T19:15:02.035Z,3.50
2023-01-13T19:17:33.431Z,3.50
2023-01-13T19:20:05.663Z,3.50
2023-01-13T19:22:37.605Z,3.40
2023-01-13T19:25:08.203Z,3.50
2023-01-13T19:27:40.335Z,3.50
2023-01-13T19:30:12.444Z,3.40
2023-01-13T19:32:44.864Z,3.50
2023-01-13T19:35:18.939Z,3.50
2023-01-13T19:37:50.744Z,3.50
2023-01-13T19:40:20.693Z,3.50
2023-01-13T19:43:07.675Z,3.30
2023-01-13T19:45:38.103Z,3.50
2023-01-13T19:48:09.364Z,3.50
2023-01-13T19:50:39.857Z,3.40
2023-01-13T19:53:16.500Z,3.40
2023-01-13T19:55:48.749Z,3.30
2023-01-13T19:58:20.572Z,3.40
2023-01-13T20:00:50.262Z,3.40
2023-01-13T20:03:25.330Z,3.50
2023-01-13T20:05:56.011Z,3.40
2023-01-13T20:08:28.693Z,3.40
2023-01-13T20:11:20.255Z,3.40
2023-01-13T20:13:54.613Z,3.30
2023-01-13T20:16:26.954Z,3.30
2023-01-13T20:18:57.840Z,3.30
2023-01-13T20:21:28.254Z,3.20
2023-01-13T20:24:04.380Z,3.30
2023-01-13T20:26:34.771Z,3.30
2023-01-13T20:29:04.588Z,3.20
2023-01-13T20:31:36.082Z,3.20
2023-01-13T20:34:06.209Z,3.20
2023-01-13T20:36:39.859Z,3.10
2023-01-13T20:39:16.245Z,3.10
2023-01-13T20:42:03.809Z,3.10
2023-01-13T20:44:34.119Z,3.10
2023-01-13T20:47:05.042Z,3.10
2023-01-13T20:49:36.382Z,3.10
2023-01-13T20:52:09.802Z,3.10
2023-01-13T20:54:42.339Z,3.00
2023-01-13T20:57:12.804Z,2.90
2023-01-13T20:59:43.013Z,2.90
2023-01-13T21:02:18.111Z,3.00
2023-01-13T21:04:47.860Z,2.90
2023-01-13T21:07:17.287Z,2.90
2023-01-13T21:09:49.990Z,2.80
2023-01-13T21:12:37.365Z,2.80
2023-01-13T21:15:22.410Z,2.70
2023-01-13T21:18:11.076Z,2.50
2023-01-13T21:20:42.429Z,2.50
2023-01-13T21:23:13.235Z,2.50
2023-01-13T21:25:44.342Z,2.40
2023-01-13T21:28:14.438Z,2.40
2023-01-13T21:30:46.058Z,2.20
2023-01-13T21:33:16.625Z,2.30
2023-01-13T21:35:46.443Z,2.30
2023-01-13T21:38:16.030Z,2.30
2023-01-13T21:40:46.808Z,2.30
2023-01-13T21:43:33.213Z,2.10
2023-01-13T21:46:20.255Z,2.10
2023-01-13T21:48:50.113Z,2.20
2023-01-13T21:51:19.388Z,2.20
2023-01-13T21:53:49.093Z,2.30
2023-01-13T21:56:21.715Z,2.30
2023-01-13T21:58:52.063Z,2.40
2023-01-13T22:01:21.801Z,2.30
2023-01-13T22:04:07.531Z,2.30
2023-01-13T22:06:37.255Z,2.30
2023-01-13T22:09:06.885Z,2.20
2023-01-13T22:11:38.007Z,2.10
2023-01-13T22:14:07.765Z,2.20
2023-01-13T22:16:40.351Z,2.20
2023-01-13T22:19:11.892Z,2.10
2023-01-13T22:21:41.607Z,2.00
2023-01-13T22:24:11.678Z,2.20
2023-01-13T22:26:43.548Z,2.10
2023-01-13T22:29:12.903Z,2.10
2023-01-13T22:31:42.089Z,2.10
2023-01-13T22:34:14.649Z,2.20
2023-01-13T22:36:43.708Z,2.00
2023-01-13T22:39:13.219Z,2.10
2023-01-13T22:41:44.764Z,2.00
2023-01-13T22:44:14.204Z,2.10
2023-01-13T22:46:43.524Z,2.10
2023-01-13T22:49:13.943Z,2.00
2023-01-13T22:51:43.215Z,2.10
2023-01-13T22:54:12.823Z,2.20
2023-01-13T22:56:43.761Z,2.00
2023-01-13T22:59:14.802Z,2.10
2023-01-13T23:01:43.960Z,2.20
2023-01-13T23:04:14.482Z,2.10
2023-01-13T23:06:44.604Z,2.10
2023-01-13T23:09:13.866Z,2.20
2023-01-13T23:11:46.275Z,2.30
2023-01-13T23:14:17.439Z,2.30
2023-01-13T23:16:47.166Z,2.30
2023-01-13T23:19:16.621Z,2.30
2023-01-13T23:21:46.103Z,2.30
2023-01-13T23:24:15.440Z,2.10
2023-01-13T23:26:46.321Z,2.20
2023-01-13T23:29:15.813Z,2.10
2023-01-13T23:31:44.994Z,2.10
2023-01-13T23:34:14.539Z,2.10
2023-01-13T23:36:44.834Z,2.10
2023-01-13T23:39:13.705Z,2.10
2023-01-13T23:41:43.227Z,2.20
2023-01-13T23:44:14.385Z,2.20
2023-01-13T23:46:43.583Z,2.20
2023-01-13T23:49:12.665Z,2.10
2023-01-13T23:51:42.410Z,2.10
2023-01-13T23:54:11.726Z,2.20
2023-01-13T23:56:40.967Z,2.10
2023-01-13T23:59:10.842Z,2.10
